Time;durP1;ratioP1;P1;durP2;ratioP2;P2;SDS_P1;SDS_P2;PMS_P1;PMS_P2;Temp;Humidity;BMP_temperature;BMP_pressure;BME280_temperature;BME280_humidity;BME280_pressure;Samples;Min_cycle;Max_cycle;Signal;HPM_P1;HPM_P2
2021/01/23 00:00:25;;;;;;;12.00;7.30;;;4.50;99.90;;;;;;5080827;28;20052;-75
2021/01/23 00:02:52;;;;;;;10.80;7.40;;;4.40;99.90;;;;;;5080488;28;20020;-76
2021/01/23 00:05:22;;;;;;;10.57;8.18;;;4.40;99.90;;;;;;5080867;28;20111;-75
2021/01/23 00:07:50;;;;;;;12.57;8.07;;;4.50;99.90;;;;;;5081916;28;20055;-75
2021/01/23 00:10:19;;;;;;;9.85;6.75;;;4.50;99.90;;;;;;5079352;28;20043;-75
2021/01/23 00:12:44;;;;;;;11.70;7.65;;;4.50;99.90;;;;;;5079340;28;20591;-75
2021/01/23 00:15:10;;;;;;;13.57;7.85;;;4.50;99.90;;;;;;5079701;28;20032;-75
2021/01/23 00:17:38;;;;;;;10.88;7.00;;;4.50;99.90;;;;;;5079006;28;20167;-75
2021/01/23 00:20:04;;;;;;;10.48;7.30;;;4.50;99.90;;;;;;5078372;28;20047;-75
2021/01/23 00:22:32;;;;;;;11.48;7.45;;;4.50;99.90;;;;;;5081144;28;20021;-75
2021/01/23 00:24:58;;;;;;;11.95;7.63;;;4.50;99.90;;;;;;5080020;28;20039;-75
2021/01/23 00:27:24;;;;;;;13.57;8.80;;;4.50;99.90;;;;;;5080356;28;20377;-75
2021/01/23 00:29:54;;;;;;;13.40;8.23;;;4.50;99.90;;;;;;5079490;28;20097;-75
2021/01/23 00:32:24;;;;;;;12.00;8.50;;;4.50;99.90;;;;;;5078244;28;20035;-75
2021/01/23 00:34:50;;;;;;;14.30;8.95;;;4.50;99.90;;;;;;5080882;28;20044;-75
2021/01/23 00:37:18;;;;;;;12.80;8.40;;;4.50;99.90;;;;;;5079093;28;20039;-75
2021/01/23 00:39:46;;;;;;;12.38;9.32;;;4.50;99.90;;;;;;5065151;28;20037;-75
2021/01/23 00:42:11;;;;;;;13.73;8.70;;;4.50;99.90;;;;;;5081084;28;20024;-75
2021/01/23 00:44:37;;;;;;;13.07;8.68;;;4.50;99.90;;;;;;5077949;28;20090;-75
2021/01/23 00:47:05;;;;;;;15.10;9.02;;;4.60;99.90;;;;;;5077288;28;20032;-75
2021/01/23 00:49:31;;;;;;;14.00;9.00;;;4.60;99.90;;;;;;5076238;28;20025;-75
2021/01/23 00:51:58;;;;;;;13.75;8.52;;;4.60;99.90;;;;;;5076785;28;20035;-75
2021/01/23 00:54:24;;;;;;;13.93;8.70;;;4.70;99.90;;;;;;5070666;28;20035;-75
2021/01/23 00:56:52;;;;;;;13.50;9.05;;;4.70;99.90;;;;;;5076730;28;20454;-75
2021/01/23 00:59:17;;;;;;;17.02;9.60;;;4.70;99.90;;;;;;5075317;28;20534;-75
2021/01/23 01:01:45;;;;;;;15.25;9.60;;;4.60;99.90;;;;;;5075717;28;20281;-75
2021/01/23 01:04:15;;;;;;;15.63;9.75;;;4.70;99.90;;;;;;5077421;28;20032;-75
2021/01/23 01:06:41;;;;;;;13.55;9.27;;;4.70;99.90;;;;;;5075439;28;20024;-75
2021/01/23 01:09:09;;;;;;;15.65;9.70;;;4.60;99.90;;;;;;5075058;28;20032;-75
2021/01/23 01:11:37;;;;;;;15.70;10.30;;;4.60;99.90;;;;;;5071380;28;20036;-75
2021/01/23 01:14:05;;;;;;;16.73;9.95;;;4.60;99.90;;;;;;5089138;28;20039;-75
2021/01/23 01:16:31;;;;;;;11.50;8.45;;;4.60;99.90;;;;;;5085836;28;20020;-75
2021/01/23 01:18:59;;;;;;;13.30;8.90;;;4.60;99.90;;;;;;5076973;28;20489;-75
2021/01/23 01:21:24;;;;;;;14.20;9.55;;;4.60;99.90;;;;;;5076813;28;20105;-75
2021/01/23 01:23:52;;;;;;;15.50;9.23;;;4.50;99.90;;;;;;5077292;28;20032;-75
2021/01/23 01:26:20;;;;;;;14.13;9.00;;;4.60;99.90;;;;;;5077587;28;20040;-74
2021/01/23 01:28:46;;;;;;;14.30;8.85;;;4.50;99.90;;;;;;5075212;28;20047;-76
2021/01/23 01:31:12;;;;;;;13.23;9.30;;;4.60;99.90;;;;;;5082702;28;20383;-75
2021/01/23 01:33:39;;;;;;;12.55;7.97;;;4.60;99.90;;;;;;5089897;28;20028;-74
2021/01/23 01:36:05;;;;;;;13.27;8.27;;;4.70;99.90;;;;;;5089719;28;20031;-75
2021/01/23 01:38:33;;;;;;;12.68;7.80;;;4.70;99.90;;;;;;5086647;28;20323;-75
2021/01/23 01:40:59;;;;;;;11.20;7.50;;;4.70;99.90;;;;;;5089888;28;20035;-75
2021/01/23 01:43:29;;;;;;;12.43;8.40;;;4.80;99.90;;;;;;5087102;28;20020;-75
2021/01/23 01:45:55;;;;;;;9.95;7.75;;;4.80;99.90;;;;;;5087824;28;20044;-75
2021/01/23 01:48:20;;;;;;;12.88;7.93;;;4.90;99.90;;;;;;5070182;28;20028;-75
2021/01/23 01:50:49;;;;;;;10.63;7.10;;;4.90;99.90;;;;;;5060987;28;20103;-75
2021/01/23 01:53:20;;;;;;;13.07;8.07;;;4.90;99.90;;;;;;5051608;28;20032;-75
2021/01/23 01:55:46;;;;;;;10.80;7.07;;;4.90;99.90;;;;;;5079037;28;20024;-75
2021/01/23 01:58:12;;;;;;;12.52;7.43;;;4.90;99.90;;;;;;5051660;28;20561;-75
2021/01/23 02:00:37;;;;;;;11.05;6.82;;;4.90;99.90;;;;;;5081250;28;20028;-75
2021/01/23 02:03:47;;;;;;;9.63;7.00;;;4.80;99.90;;;;;;5087797;28;20579;-75
2021/01/23 02:06:22;;;;;;;9.77;6.03;;;4.90;99.90;;;;;;5016322;28;20096;-75
2021/01/23 02:09:03;;;;;;;9.07;5.70;;;4.90;99.90;;;;;;5075973;28;20122;-75
2021/01/23 02:12:06;;;;;;;9.13;5.85;;;4.90;99.90;;;;;;5077140;28;20023;-75
2021/01/23 02:14:55;;;;;;;9.00;5.47;;;4.90;99.90;;;;;;5085501;28;20062;-75
2021/01/23 02:17:22;;;;;;;9.55;5.63;;;4.90;99.90;;;;;;5089239;28;20043;-75
2021/01/23 02:20:09;;;;;;;10.13;6.18;;;4.90;99.90;;;;;;5067596;28;20412;-75
2021/01/23 02:23:12;;;;;;;8.70;5.55;;;4.90;99.90;;;;;;5081730;28;20027;-75
2021/01/23 02:25:55;;;;;;;7.43;4.95;;;4.90;99.90;;;;;;5074637;28;20036;-75
2021/01/23 02:28:38;;;;;;;8.68;4.80;;;4.80;99.90;;;;;;5075645;28;20116;-75
2021/01/23 02:31:22;;;;;;;9.38;5.30;;;4.80;99.90;;;;;;5070706;28;20055;-75
2021/01/23 02:33:54;;;;;;;9.00;5.05;;;4.80;99.90;;;;;;5074184;28;20050;-74
2021/01/23 02:36:23;;;;;;;9.35;4.97;;;4.80;99.90;;;;;;5076960;28;20028;-75
2021/01/23 02:38:52;;;;;;;9.77;5.25;;;4.80;99.90;;;;;;5078847;28;20158;-75
2021/01/23 02:41:20;;;;;;;8.88;5.30;;;4.70;99.90;;;;;;5065126;28;20028;-75
2021/01/23 02:43:49;;;;;;;9.27;4.72;;;4.80;99.90;;;;;;5073830;28;20043;-75
2021/01/23 02:46:18;;;;;;;7.32;4.43;;;4.70;99.90;;;;;;5058243;28;20028;-75
2021/01/23 02:48:46;;;;;;;8.57;4.68;;;4.80;99.90;;;;;;5071838;28;20031;-75
2021/01/23 02:51:29;;;;;;;8.65;4.40;;;4.70;99.90;;;;;;5074158;28;20035;-75
2021/01/23 02:54:01;;;;;;;8.65;4.18;;;4.80;99.90;;;;;;5073959;28;20051;-75
2021/01/23 02:56:26;;;;;;;8.77;4.18;;;4.70;99.90;;;;;;5081733;28;20032;-75
2021/01/23 02:58:53;;;;;;;7.47;3.78;;;4.70;99.90;;;;;;5059720;28;20712;-75
2021/01/23 03:01:23;;;;;;;8.38;4.35;;;4.70;99.90;;;;;;5041880;28;20709;-75
2021/01/23 03:03:54;;;;;;;6.28;3.58;;;4.70;99.90;;;;;;5075956;28;20032;-75
2021/01/23 03:06:20;;;;;;;8.15;3.80;;;4.70;99.90;;;;;;5042725;28;20455;-75
2021/01/23 03:08:48;;;;;;;8.27;4.07;;;4.60;99.90;;;;;;5059224;28;20058;-75
2021/01/23 03:11:14;;;;;;;8.32;4.30;;;4.70;99.90;;;;;;5043438;28;20512;-75
2021/01/23 03:13:40;;;;;;;9.80;4.70;;;4.60;99.90;;;;;;5073434;28;20055;-75
2021/01/23 03:16:08;;;;;;;8.45;4.53;;;4.60;99.90;;;;;;5079086;28;20515;-75
2021/01/23 03:18:33;;;;;;;7.82;4.43;;;4.70;99.90;;;;;;5088900;28;20549;-75
2021/01/23 03:20:59;;;;;;;8.05;3.40;;;4.60;99.90;;;;;;5079429;28;20111;-75
2021/01/23 03:23:27;;;;;;;9.55;4.90;;;4.60;99.90;;;;;;5074953;28;20035;-75
2021/01/23 03:25:52;;;;;;;8.65;5.40;;;4.60;99.90;;;;;;5073396;28;20453;-75
2021/01/23 03:28:20;;;;;;;10.30;5.63;;;4.60;99.90;;;;;;5071692;28;20024;-75
2021/01/23 03:30:46;;;;;;;9.85;6.05;;;4.60;99.90;;;;;;5073577;28;20488;-75
2021/01/23 03:33:12;;;;;;;12.75;7.25;;;4.60;99.90;;;;;;5067995;28;20385;-75
2021/01/23 03:35:40;;;;;;;10.68;6.78;;;4.60;99.90;;;;;;5072695;28;20048;-75
2021/01/23 03:38:06;;;;;;;11.50;7.57;;;4.60;99.90;;;;;;5072132;28;20024;-75
2021/01/23 03:40:35;;;;;;;10.95;7.10;;;4.60;99.90;;;;;;5074196;28;20093;-75
2021/01/23 03:43:00;;;;;;;8.20;5.28;;;4.50;99.90;;;;;;5074243;28;20488;-75
2021/01/23 03:45:29;;;;;;;10.32;5.05;;;4.40;99.90;;;;;;5074348;28;20066;-75
2021/01/23 03:47:54;;;;;;;8.13;5.20;;;4.40;99.90;;;;;;5073651;28;20072;-75
2021/01/23 03:50:22;;;;;;;9.23;5.43;;;4.50;99.90;;;;;;5084673;28;20453;-75
2021/01/23 03:52:50;;;;;;;9.48;5.78;;;4.50;99.90;;;;;;5086633;28;20023;-75
2021/01/23 03:55:16;;;;;;;10.05;6.35;;;4.50;99.90;;;;;;5086310;28;20040;-75
2021/01/23 03:57:46;;;;;;;12.40;7.43;;;4.40;99.90;;;;;;5086198;28;20126;-75
2021/01/23 04:00:15;;;;;;;12.20;7.45;;;4.40;99.90;;;;;;5076460;28;20480;-75
2021/01/23 04:02:45;;;;;;;11.95;6.63;;;4.30;99.90;;;;;;5085457;28;20108;-75
2021/01/23 04:05:11;;;;;;;10.98;6.78;;;4.30;99.90;;;;;;5087545;28;20035;-75
2021/01/23 04:07:37;;;;;;;9.25;6.22;;;4.30;99.90;;;;;;5074020;28;20028;-75
2021/01/23 04:10:06;;;;;;;11.07;6.25;;;4.30;99.90;;;;;;5073003;28;20043;-75
2021/01/23 04:12:34;;;;;;;10.40;6.47;;;4.30;99.90;;;;;;5073686;28;20033;-75
2021/01/23 04:15:02;;;;;;;9.10;5.90;;;4.30;99.90;;;;;;5073257;28;20442;-75
2021/01/23 04:17:30;;;;;;;11.35;6.72;;;4.30;99.90;;;;;;5073831;28;20101;-75
2021/01/23 04:19:56;;;;;;;9.98;5.68;;;4.30;99.90;;;;;;5075812;28;20173;-75
2021/01/23 04:22:24;;;;;;;11.98;6.10;;;4.20;99.90;;;;;;5077620;28;20419;-75
2021/01/23 04:24:49;;;;;;;9.18;5.60;;;4.30;99.90;;;;;;5076501;28;20051;-75
2021/01/23 04:27:17;;;;;;;9.98;5.85;;;4.20;99.90;;;;;;5077375;28;20107;-75
2021/01/23 04:29:43;;;;;;;10.68;5.43;;;4.20;99.90;;;;;;5063214;28;20532;-75
2021/01/23 04:32:08;;;;;;;10.25;5.70;;;4.10;99.90;;;;;;5076432;28;20028;-77
2021/01/23 04:34:37;;;;;;;9.02;5.35;;;4.20;99.90;;;;;;5075758;28;20041;-75
2021/01/23 04:37:05;;;;;;;8.65;5.00;;;4.20;99.90;;;;;;5076105;28;20109;-75
2021/01/23 04:39:35;;;;;;;9.13;4.88;;;4.10;99.90;;;;;;5078318;28;20514;-75
2021/01/23 04:42:06;;;;;;;8.95;4.50;;;4.10;99.90;;;;;;5079786;28;20037;-75
2021/01/23 04:44:32;;;;;;;7.80;4.63;;;4.00;99.90;;;;;;5077268;28;20028;-75
2021/01/23 04:46:58;;;;;;;8.27;4.72;;;4.10;99.90;;;;;;5087027;28;20043;-75
2021/01/23 04:49:29;;;;;;;8.60;5.18;;;4.00;99.90;;;;;;5094330;28;20028;-75
2021/01/23 04:51:55;;;;;;;6.97;3.90;;;3.90;99.90;;;;;;5066038;28;20058;-75
2021/01/23 04:54:21;;;;;;;7.97;4.00;;;3.90;99.90;;;;;;5075413;28;20671;-75
2021/01/23 04:56:46;;;;;;;7.25;3.70;;;4.00;99.90;;;;;;5076892;28;20593;-75
2021/01/23 04:59:14;;;;;;;8.65;3.28;;;4.00;99.90;;;;;;5089754;28;20028;-75
2021/01/23 05:01:40;;;;;;;6.80;3.42;;;4.00;99.90;;;;;;5092048;28;20088;-76
2021/01/23 05:04:10;;;;;;;7.32;3.60;;;3.90;99.90;;;;;;5081342;28;21989;-75
2021/01/23 05:06:36;;;;;;;7.40;3.47;;;3.90;99.90;;;;;;5075994;28;20263;-75
2021/01/23 05:09:02;;;;;;;8.48;3.70;;;3.90;99.90;;;;;;5086377;28;20107;-75
2021/01/23 05:11:49;;;;;;;7.97;3.95;;;3.90;99.90;;;;;;5056783;28;20412;-75
2021/01/23 05:14:18;;;;;;;7.20;4.32;;;3.90;99.90;;;;;;5076880;28;20054;-75
2021/01/23 05:16:48;;;;;;;11.10;5.85;;;3.90;99.90;;;;;;5066923;28;20453;-75
2021/01/23 05:19:16;;;;;;;9.20;4.82;;;3.80;99.90;;;;;;5076388;28;20537;-75
2021/01/23 05:21:42;;;;;;;9.27;4.70;;;3.80;99.90;;;;;;5075242;28;20027;-75
2021/01/23 05:24:12;;;;;;;8.07;4.53;;;3.80;99.90;;;;;;5059277;28;20359;-75
2021/01/23 05:26:54;;;;;;;8.32;4.18;;;3.70;99.90;;;;;;5070654;28;20039;-76
2021/01/23 05:29:19;;;;;;;8.63;5.10;;;3.70;99.90;;;;;;5070658;28;20032;-75
2021/01/23 05:31:45;;;;;;;9.30;4.68;;;3.60;99.90;;;;;;5074352;28;20037;-75
2021/01/23 05:34:30;;;;;;;9.48;4.93;;;3.60;99.90;;;;;;5042710;28;20036;-75
2021/01/23 05:36:56;;;;;;;10.85;6.40;;;3.60;99.90;;;;;;5069897;28;20053;-75
2021/01/23 05:39:42;;;;;;;13.50;7.03;;;3.50;99.90;;;;;;5075377;28;20785;-75
2021/01/23 05:42:11;;;;;;;9.85;6.90;;;3.50;99.90;;;;;;5074338;28;20528;-75
2021/01/23 05:44:39;;;;;;;10.85;6.78;;;3.50;99.90;;;;;;5076404;28;20061;-75
2021/01/23 05:47:36;;;;;;;11.25;6.53;;;3.50;99.90;;;;;;5076414;28;20044;-75
2021/01/23 05:50:03;;;;;;;10.75;6.05;;;3.60;99.90;;;;;;5057497;28;20037;-75
2021/01/23 05:52:29;;;;;;;12.75;7.05;;;3.60;99.90;;;;;;5073966;28;20067;-75
2021/01/23 05:54:57;;;;;;;10.98;6.72;;;3.60;99.90;;;;;;5077010;28;20040;-75
2021/01/23 05:57:26;;;;;;;10.52;6.40;;;3.60;99.90;;;;;;5077499;28;20610;-75
2021/01/23 05:59:52;;;;;;;11.27;6.38;;;3.50;99.90;;;;;;5058106;28;20016;-75
2021/01/23 06:02:20;;;;;;;10.68;6.40;;;3.50;99.90;;;;;;5074362;28;20033;-76
2021/01/23 06:04:54;;;;;;;11.07;6.10;;;3.50;99.90;;;;;;5075094;28;20051;-75
2021/01/23 06:07:55;;;;;;;9.15;5.85;;;3.50;99.90;;;;;;5076636;28;20032;-75
2021/01/23 06:10:27;;;;;;;9.48;6.10;;;3.50;99.90;;;;;;4960601;28;20029;-76
2021/01/23 06:13:00;;;;;;;9.20;5.63;;;3.50;99.90;;;;;;5062709;28;20063;-76
2021/01/23 06:15:32;;;;;;;10.98;5.95;;;3.40;99.90;;;;;;5082892;28;20055;-75
2021/01/23 06:18:02;;;;;;;9.82;5.90;;;3.40;99.90;;;;;;5089252;28;20016;-75
2021/01/23 06:20:42;;;;;;;9.57;6.00;;;3.40;99.90;;;;;;5082409;28;20075;-75
2021/01/23 06:23:16;;;;;;;9.65;5.93;;;3.30;99.90;;;;;;5074871;28;20032;-75
2021/01/23 06:25:51;;;;;;;12.50;6.30;;;3.30;99.90;;;;;;5074994;28;20042;-75
2021/01/23 06:28:25;;;;;;;12.35;6.22;;;3.30;99.90;;;;;;5074640;28;20162;-75
2021/01/23 06:30:56;;;;;;;10.38;6.43;;;3.20;99.90;;;;;;5075517;28;20465;-75
2021/01/23 06:33:22;;;;;;;9.82;6.20;;;3.20;99.90;;;;;;5076916;28;20038;-75
2021/01/23 06:36:10;;;;;;;9.77;5.82;;;3.10;99.90;;;;;;5074716;28;20071;-75
2021/01/23 06:38:39;;;;;;;9.63;5.90;;;3.10;99.90;;;;;;5064493;27;20036;-75
2021/01/23 06:41:30;;;;;;;11.05;6.80;;;3.00;99.90;;;;;;5069698;28;20075;-75
2021/01/23 06:44:18;;;;;;;9.50;5.90;;;3.00;99.90;;;;;;5061990;28;20028;-74
2021/01/23 06:46:52;;;;;;;10.07;6.95;;;3.00;99.90;;;;;;5074995;28;20032;-74
2021/01/23 06:49:18;;;;;;;11.68;6.63;;;2.90;99.90;;;;;;5074153;28;20105;-75
2021/01/23 06:51:46;;;;;;;12.38;7.00;;;2.80;99.90;;;;;;5074351;28;20032;-75
2021/01/23 06:54:21;;;;;;;11.38;7.32;;;2.80;99.90;;;;;;5074372;28;20023;-74
2021/01/23 06:56:48;;;;;;;10.90;6.80;;;2.80;99.90;;;;;;5075695;28;20183;-75
2021/01/23 06:59:27;;;;;;;10.70;6.97;;;2.70;99.90;;;;;;5075813;28;20115;-74
2021/01/23 07:02:17;;;;;;;11.30;7.60;;;2.70;99.90;;;;;;5076324;28;20031;-74
2021/01/23 07:04:49;;;;;;;16.90;9.48;;;2.70;99.90;;;;;;5067534;28;20029;-74
2021/01/23 07:07:20;;;;;;;12.80;7.95;;;2.60;99.90;;;;;;5075163;28;20119;-75
2021/01/23 07:09:58;;;;;;;12.85;8.50;;;2.60;99.90;;;;;;5072708;28;20048;-74
2021/01/23 07:12:45;;;;;;;13.65;9.02;;;2.60;99.90;;;;;;5074723;28;20123;-74
2021/01/23 07:15:11;;;;;;;14.77;9.00;;;2.60;99.90;;;;;;5074478;28;20456;-74
2021/01/23 07:17:43;;;;;;;17.55;10.73;;;2.50;99.90;;;;;;5073668;28;20021;-74
2021/01/23 07:20:10;;;;;;;11.15;7.53;;;2.60;99.90;;;;;;5056753;28;20257;-74
2021/01/23 07:22:41;;;;;;;12.88;8.43;;;2.50;99.90;;;;;;5056414;28;20032;-74
2021/01/23 07:25:09;;;;;;;15.80;9.88;;;2.60;99.90;;;;;;5073717;28;20028;-74
2021/01/23 07:27:35;;;;;;;15.63;9.65;;;2.60;99.90;;;;;;5069110;28;20024;-75
2021/01/23 07:30:01;;;;;;;16.13;8.95;;;2.60;99.90;;;;;;5073268;28;20067;-74
2021/01/23 07:32:39;;;;;;;15.20;8.88;;;2.70;99.90;;;;;;5075150;28;20032;-75
2021/01/23 07:35:06;;;;;;;16.17;9.65;;;2.70;99.90;;;;;;5061685;28;20048;-74
2021/01/23 07:37:53;;;;;;;14.82;10.40;;;2.70;99.90;;;;;;5074708;28;20028;-75
2021/01/23 07:40:26;;;;;;;14.57;9.60;;;2.80;99.90;;;;;;5073994;28;20039;-74
2021/01/23 07:42:54;;;;;;;16.45;10.48;;;2.80;99.90;;;;;;5084207;28;20036;-74
2021/01/23 07:45:22;;;;;;;14.23;9.38;;;2.80;99.90;;;;;;5084416;28;20028;-74
2021/01/23 07:48:04;;;;;;;15.48;9.50;;;2.80;99.90;;;;;;5064067;28;20545;-75
2021/01/23 07:50:40;;;;;;;18.67;11.32;;;2.90;99.90;;;;;;5075485;28;20028;-75
2021/01/23 07:53:16;;;;;;;15.55;10.00;;;2.80;99.90;;;;;;5072651;28;20107;-75
2021/01/23 07:55:45;;;;;;;18.38;11.18;;;2.90;99.90;;;;;;5077274;28;20027;-75
2021/01/23 07:58:13;;;;;;;19.88;11.13;;;2.90;99.90;;;;;;5092313;28;20031;-75
2021/01/23 08:00:39;;;;;;;14.30;9.30;;;2.90;99.90;;;;;;5089953;28;20032;-75
2021/01/23 08:03:05;;;;;;;16.20;10.73;;;3.00;99.90;;;;;;5088529;28;20024;-75
2021/01/23 08:05:50;;;;;;;17.70;10.88;;;3.00;99.90;;;;;;5077753;28;21028;-75
2021/01/23 08:08:36;;;;;;;16.10;10.68;;;3.00;99.90;;;;;;5077815;28;20481;-75
2021/01/23 08:11:03;;;;;;;17.30;11.10;;;3.10;99.90;;;;;;5078687;28;20074;-75
2021/01/23 08:13:30;;;;;;;16.13;10.27;;;3.00;99.90;;;;;;5077046;28;20055;-75
2021/01/23 08:16:09;;;;;;;15.02;10.73;;;3.10;99.90;;;;;;5080984;28;20508;-75
2021/01/23 08:18:34;;;;;;;14.85;9.77;;;3.10;99.90;;;;;;5079125;28;20071;-75
2021/01/23 08:21:00;;;;;;;16.70;11.05;;;3.10;99.90;;;;;;5075295;28;20032;-75
2021/01/23 08:23:33;;;;;;;18.83;11.45;;;3.10;99.90;;;;;;5076473;28;20428;-75
2021/01/23 08:25:58;;;;;;;;;;;3.20;99.90;;;;;;5077660;28;20654;-75
2021/01/23 08:28:33;;;;;;;16.90;10.10;;;3.10;99.90;;;;;;5082290;28;19912;-75
2021/01/23 08:31:22;;;;;;;16.73;10.77;;;3.20;99.90;;;;;;5088859;28;20029;-75
2021/01/23 08:33:54;;;;;;;15.13;9.65;;;3.20;99.90;;;;;;5089218;28;20027;-75
2021/01/23 08:36:22;;;;;;;16.17;10.17;;;3.30;99.90;;;;;;5085793;28;20040;-75
2021/01/23 08:39:01;;;;;;;14.30;10.18;;;3.30;99.90;;;;;;5080771;28;20039;-75
2021/01/23 08:41:26;;;;;;;16.85;10.30;;;3.30;99.90;;;;;;5076984;28;20460;-75
2021/01/23 08:43:54;;;;;;;15.27;9.57;;;3.30;99.90;;;;;;5061435;28;20039;-75
2021/01/23 08:46:22;;;;;;;12.52;8.82;;;3.40;99.90;;;;;;5089964;28;20023;-75
2021/01/23 08:48:50;;;;;;;17.77;9.98;;;3.40;99.90;;;;;;5081362;28;20054;-75
2021/01/23 08:51:18;;;;;;;15.68;9.50;;;3.50;99.90;;;;;;5073613;28;20023;-75
2021/01/23 08:53:46;;;;;;;12.00;8.60;;;3.50;99.90;;;;;;5091934;28;20040;-75
2021/01/23 08:56:13;;;;;;;15.82;9.20;;;3.60;99.90;;;;;;5079332;28;20063;-72
2021/01/23 08:58:41;;;;;;;13.98;9.98;;;3.60;99.90;;;;;;5076346;28;20058;-72
2021/01/23 09:01:09;;;;;;;15.27;9.00;;;3.60;99.90;;;;;;5074974;28;20060;-72
2021/01/23 09:03:38;;;;;;;16.92;10.35;;;3.60;99.90;;;;;;5076526;28;20628;-75
2021/01/23 09:06:04;;;;;;;17.00;9.75;;;3.60;99.90;;;;;;5075993;28;20024;-75
2021/01/23 09:08:32;;;;;;;12.35;8.50;;;3.70;99.90;;;;;;5075687;28;20039;-75
2021/01/23 09:11:02;;;;;;;14.43;9.40;;;3.70;99.90;;;;;;5076644;28;20064;-75
2021/01/23 09:13:27;;;;;;;14.18;8.80;;;3.80;99.90;;;;;;5076582;28;20059;-75
2021/01/23 09:15:58;;;;;;;16.00;10.52;;;3.80;99.90;;;;;;5076445;28;20032;-75
2021/01/23 09:18:24;;;;;;;16.35;9.98;;;3.90;99.90;;;;;;5076512;28;20032;-75
2021/01/23 09:20:49;;;;;;;14.35;9.40;;;3.90;99.90;;;;;;5077073;28;20093;-75
2021/01/23 09:23:15;;;;;;;13.93;9.38;;;4.00;99.90;;;;;;5075036;28;20040;-75
2021/01/23 09:25:45;;;;;;;14.15;9.32;;;4.00;99.90;;;;;;5074545;28;20066;-75
2021/01/23 09:28:16;;;;;;;16.95;11.32;;;3.90;99.90;;;;;;5077861;28;20068;-76
2021/01/23 09:30:41;;;;;;;16.38;10.48;;;4.00;99.90;;;;;;5090344;28;20032;-75
2021/01/23 09:33:07;;;;;;;15.77;9.95;;;3.90;99.90;;;;;;5083120;28;20024;-75
2021/01/23 09:35:35;;;;;;;18.50;11.90;;;4.00;99.90;;;;;;5076013;28;20124;-75
2021/01/23 09:38:01;;;;;;;18.08;11.30;;;4.00;99.90;;;;;;5076988;28;20024;-73
2021/01/23 09:40:29;;;;;;;17.23;11.10;;;4.00;99.90;;;;;;5076829;28;20072;-72
2021/01/23 09:42:55;;;;;;;19.73;12.00;;;4.00;99.90;;;;;;5076052;28;20068;-75
2021/01/23 09:45:23;;;;;;;20.98;12.90;;;4.00;99.90;;;;;;5069176;28;21869;-75
2021/01/23 09:47:48;;;;;;;17.40;11.25;;;4.10;99.90;;;;;;5076608;28;20488;-74
2021/01/23 09:50:21;;;;;;;19.30;11.57;;;4.10;99.90;;;;;;5078195;28;20556;-74
2021/01/23 09:52:50;;;;;;;16.33;10.68;;;4.10;99.90;;;;;;5074724;28;20103;-75
2021/01/23 09:55:18;;;;;;;15.00;10.73;;;4.10;99.90;;;;;;5069938;28;20027;-75
2021/01/23 09:57:44;;;;;;;19.33;12.48;;;4.10;99.90;;;;;;5058618;28;20531;-75
2021/01/23 10:00:11;;;;;;;19.23;12.40;;;4.00;99.90;;;;;;5081480;28;20048;-75
2021/01/23 10:02:37;;;;;;;17.23;11.52;;;4.00;99.90;;;;;;5073636;28;20031;-75
2021/01/23 10:05:03;;;;;;;18.25;10.55;;;4.00;99.90;;;;;;5066141;28;20035;-75
2021/01/23 10:07:31;;;;;;;15.93;10.55;;;4.00;99.90;;;;;;5062874;28;20446;-75
2021/01/23 10:09:57;;;;;;;18.15;11.70;;;4.00;99.90;;;;;;5073931;28;20047;-75
2021/01/23 10:12:29;;;;;;;15.40;10.38;;;4.00;99.90;;;;;;5075590;28;20016;-75
2021/01/23 10:14:58;;;;;;;18.35;11.73;;;4.00;99.90;;;;;;5074907;28;20035;-74
2021/01/23 10:17:26;;;;;;;17.70;11.60;;;4.10;99.90;;;;;;5073826;28;20031;-75
2021/01/23 10:19:51;;;;;;;15.38;10.57;;;4.10;99.90;;;;;;5072336;28;20050;-76
2021/01/23 10:22:18;;;;;;;15.88;10.82;;;4.10;99.90;;;;;;5050778;28;20028;-75
2021/01/23 10:24:46;;;;;;;17.15;11.15;;;4.10;99.90;;;;;;5069147;28;20032;-76
2021/01/23 10:27:13;;;;;;;19.00;12.02;;;4.10;99.90;;;;;;5068202;28;20466;-75
2021/01/23 10:29:41;;;;;;;19.38;12.95;;;4.00;99.90;;;;;;4373253;28;10000749;-74
2021/01/23 10:32:09;;;;;;;21.00;14.35;;;4.00;99.90;;;;;;5068607;28;20028;-75
2021/01/23 10:34:35;;;;;;;19.88;12.57;;;4.10;99.90;;;;;;5073934;28;20481;-75
2021/01/23 10:37:01;;;;;;;21.98;14.05;;;4.10;99.90;;;;;;5075221;28;20036;-75
2021/01/23 10:39:31;;;;;;;24.63;15.75;;;4.10;99.90;;;;;;5067229;28;20484;-75
2021/01/23 10:41:57;;;;;;;22.05;14.75;;;4.10;99.90;;;;;;5074308;28;20032;-75
2021/01/23 10:44:24;;;;;;;23.02;15.13;;;4.20;99.90;;;;;;4723410;28;10000064;-75
2021/01/23 10:46:50;;;;;;;25.70;16.88;;;4.20;99.90;;;;;;5070224;28;20037;-74
2021/01/23 10:49:15;;;;;;;26.15;16.40;;;4.20;99.90;;;;;;5072887;28;20043;-74
2021/01/23 10:51:43;;;;;;;26.15;17.58;;;4.20;99.90;;;;;;5079089;28;20201;-75
2021/01/23 10:54:09;;;;;;;23.70;16.13;;;4.20;99.90;;;;;;5081702;28;20030;-75
2021/01/23 10:56:36;;;;;;;24.23;15.25;;;4.20;99.90;;;;;;5064639;28;20561;-75
2021/01/23 10:59:01;;;;;;;24.52;16.50;;;4.20;99.90;;;;;;5082642;28;20905;-75
2021/01/23 11:01:31;;;;;;;25.40;16.73;;;4.20;99.90;;;;;;5078875;28;20090;-75
2021/01/23 11:03:57;;;;;;;29.60;17.92;;;4.20;99.90;;;;;;5055802;28;20078;-75
2021/01/23 11:06:23;;;;;;;25.00;17.02;;;4.30;99.90;;;;;;5088013;28;20054;-75
2021/01/23 11:08:49;;;;;;;25.40;16.35;;;4.40;99.90;;;;;;5082874;28;20477;-75
2021/01/23 11:11:15;;;;;;;25.90;16.45;;;4.40;99.90;;;;;;5086928;28;20020;-75
2021/01/23 11:13:41;;;;;;;31.15;19.55;;;4.30;99.90;;;;;;5085056;28;20032;-75
2021/01/23 11:16:07;;;;;;;25.80;16.25;;;4.40;99.90;;;;;;5052072;28;20032;-75
2021/01/23 11:18:35;;;;;;;26.85;17.98;;;4.40;99.90;;;;;;5076176;28;20345;-75
2021/01/23 11:21:00;;;;;;;24.92;16.90;;;4.40;99.90;;;;;;5085435;28;20048;-75
2021/01/23 11:23:26;;;;;;;33.10;19.10;;;4.40;99.90;;;;;;5084851;28;20032;-72
2021/01/23 11:25:52;;;;;;;27.15;17.40;;;4.40;99.90;;;;;;5085404;28;20035;-72
2021/01/23 11:28:19;;;;;;;26.15;17.33;;;4.40;99.90;;;;;;5080292;28;20038;-75
2021/01/23 11:30:44;;;;;;;35.60;20.63;;;4.40;99.90;;;;;;5045196;28;20032;-75
2021/01/23 11:33:13;;;;;;;27.58;18.30;;;4.40;99.90;;;;;;5086025;28;20032;-75
2021/01/23 11:35:44;;;;;;;29.58;18.33;;;4.40;99.90;;;;;;5073642;28;20119;-75
2021/01/23 11:38:09;;;;;;;33.38;20.38;;;4.40;99.90;;;;;;5085064;28;20027;-75
2021/01/23 11:40:35;;;;;;;27.48;17.23;;;4.40;99.90;;;;;;5073156;28;20032;-75
2021/01/23 11:43:04;;;;;;;31.17;19.13;;;4.40;99.90;;;;;;5082363;28;20043;-75
2021/01/23 11:45:32;;;;;;;29.15;17.85;;;4.40;99.90;;;;;;5083055;28;20093;-75
2021/01/23 11:47:58;;;;;;;32.33;18.35;;;4.40;99.90;;;;;;5083524;28;20024;-75
2021/01/23 11:50:24;;;;;;;23.95;16.70;;;4.40;99.90;;;;;;5082366;28;20469;-75
2021/01/23 11:52:52;;;;;;;27.73;17.77;;;4.50;99.90;;;;;;5083786;28;20111;-75
2021/01/23 11:55:20;;;;;;;30.08;18.58;;;4.50;99.90;;;;;;5082579;28;20032;-75
2021/01/23 11:57:48;;;;;;;37.90;19.58;;;4.60;99.90;;;;;;5065581;28;20017;-75
2021/01/23 12:00:19;;;;;;;30.60;19.08;;;4.60;99.90;;;;;;5082289;28;20033;-75
2021/01/23 12:02:48;;;;;;;38.30;17.92;;;4.60;99.90;;;;;;5068832;28;20035;-75
2021/01/23 12:05:19;;;;;;;27.35;17.40;;;4.50;99.90;;;;;;5079977;28;20029;-75
2021/01/23 12:07:48;;;;;;;28.55;18.42;;;4.60;99.90;;;;;;5066048;28;20031;-75
2021/01/23 12:10:21;;;;;;;28.08;16.15;;;4.60;99.90;;;;;;5072319;28;20043;-75
2021/01/23 12:12:52;;;;;;;27.25;17.27;;;4.60;99.90;;;;;;5072500;28;20032;-76
2021/01/23 12:15:22;;;;;;;41.05;18.05;;;4.60;99.90;;;;;;5084751;28;20023;-75
2021/01/23 12:17:47;;;;;;;28.40;18.25;;;4.70;99.90;;;;;;5070943;28;20514;-75
2021/01/23 12:20:16;;;;;;;61.03;19.35;;;4.70;99.90;;;;;;5083795;28;20039;-75
2021/01/23 12:22:45;;;;;;;28.40;17.23;;;4.70;99.90;;;;;;5085525;28;20028;-76
2021/01/23 12:25:11;;;;;;;25.10;17.42;;;4.60;99.90;;;;;;5084937;28;20516;-75
2021/01/23 12:27:40;;;;;;;29.45;17.88;;;4.60;99.90;;;;;;5055591;28;20028;-75
2021/01/23 12:30:14;;;;;;;35.40;18.15;;;4.60;99.90;;;;;;5101840;28;20120;-75
2021/01/23 12:32:42;;;;;;;27.52;18.08;;;4.50;99.90;;;;;;5084469;28;20035;-75
2021/01/23 12:35:11;;;;;;;25.98;16.27;;;4.50;99.90;;;;;;5086527;28;20587;-75
2021/01/23 12:37:41;;;;;;;24.60;16.33;;;4.60;99.90;;;;;;5071223;28;20031;-75
2021/01/23 12:40:10;;;;;;;25.80;17.10;;;4.50;99.90;;;;;;5066761;28;20028;-75
2021/01/23 12:42:36;;;;;;;23.60;15.25;;;4.60;99.90;;;;;;5078450;28;20056;-75
2021/01/23 12:45:05;;;;;;;22.42;15.38;;;4.60;99.90;;;;;;5088504;28;20027;-76
2021/01/23 12:47:30;;;;;;;23.35;15.93;;;4.60;99.90;;;;;;5060220;28;20024;-74
2021/01/23 12:49:56;;;;;;;22.95;15.90;;;4.60;99.90;;;;;;5092702;28;20024;-77
2021/01/23 12:52:28;;;;;;;22.73;15.70;;;4.60;99.90;;;;;;5089339;28;20024;-74
2021/01/23 12:54:56;;;;;;;25.63;15.88;;;4.60;99.90;;;;;;5063393;28;20027;-75
2021/01/23 12:57:24;;;;;;;26.35;17.38;;;4.60;99.90;;;;;;5088340;28;20042;-75